sensor_id;sensor_type;location;lat;lon;timestamp;temperature;humidity
30594;DHT22;33199;47.590;8.300;2023-02-01T00:00:00;8.80;71.20
30594;DHT22;33199;47.590;8.300;2023-02-01T00:02:25;8.80;71.30
30594;DHT22;33199;47.590;8.300;2023-02-01T00:04:51;8.80;71.20
30594;DHT22;33199;47.590;8.300;2023-02-01T00:07:16;8.80;71.30
30594;DHT22;33199;47.590;8.300;2023-02-01T00:09:42;8.80;71.30
30594;DHT22;33199;47.590;8.300;2023-02-01T00:12:07;8.80;71.40
30594;DHT22;33199;47.590;8.300;2023-02-01T00:14:33;8.80;71.40
30594;DHT22;33199;47.590;8.300;2023-02-01T00:17:06;8.80;71.50
30594;DHT22;33199;47.590;8.300;2023-02-01T00:19:32;8.80;71.40
30594;DHT22;33199;47.590;8.300;2023-02-01T00:21:58;8.80;71.40
30594;DHT22;33199;47.590;8.300;2023-02-01T00:24:24;8.80;71.50
30594;DHT22;33199;47.590;8.300;2023-02-01T00:26:49;8.80;71.50
30594;DHT22;33199;47.590;8.300;2023-02-01T00:29:16;8.70;71.40
30594;DHT22;33199;47.590;8.300;2023-02-01T00:31:41;8.80;71.50
30594;DHT22;33199;47.590;8.300;2023-02-01T00:34:08;8.80;71.50
30594;DHT22;33199;47.590;8.300;2023-02-01T00:36:35;8.80;71.40
30594;DHT22;33199;47.590;8.300;2023-02-01T00:39:00;8.70;71.40
30594;DHT22;33199;47.590;8.300;2023-02-01T00:41:26;8.80;71.60
30594;DHT22;33199;47.590;8.300;2023-02-01T00:43:52;8.70;71.50
30594;DHT22;33199;47.590;8.300;2023-02-01T00:46:18;8.70;71.50
30594;DHT22;33199;47.590;8.300;2023-02-01T00:48:44;8.70;71.50
30594;DHT22;33199;47.590;8.300;2023-02-01T00:51:11;8.80;71.70
30594;DHT22;33199;47.590;8.300;2023-02-01T00:53:36;8.70;71.60
30594;DHT22;33199;47.590;8.300;2023-02-01T00:56:02;8.70;71.60
30594;DHT22;33199;47.590;8.300;2023-02-01T00:58:28;8.70;71.60
30594;DHT22;33199;47.590;8.300;2023-02-01T01:03:36;8.70;71.60
30594;DHT22;33199;47.590;8.300;2023-02-01T01:06:03;8.70;71.60
30594;DHT22;33199;47.590;8.300;2023-02-01T01:08:30;8.70;71.60
30594;DHT22;33199;47.590;8.300;2023-02-01T01:10:55;8.70;71.60
30594;DHT22;33199;47.590;8.300;2023-02-01T01:13:21;8.70;71.60
30594;DHT22;33199;47.590;8.300;2023-02-01T01:15:46;8.70;71.60
30594;DHT22;33199;47.590;8.300;2023-02-01T01:18:12;8.70;71.60
30594;DHT22;33199;47.590;8.300;2023-02-01T01:20:38;8.70;71.60
30594;DHT22;33199;47.590;8.300;2023-02-01T01:23:05;8.70;71.60
30594;DHT22;33199;47.590;8.300;2023-02-01T01:25:31;8.70;71.60
30594;DHT22;33199;47.590;8.300;2023-02-01T01:27:56;8.70;71.60
30594;DHT22;33199;47.590;8.300;2023-02-01T01:30:22;8.70;71.60
30594;DHT22;33199;47.590;8.300;2023-02-01T01:32:48;8.70;71.70
30594;DHT22;33199;47.590;8.300;2023-02-01T01:35:13;8.70;71.70
30594;DHT22;33199;47.590;8.300;2023-02-01T01:37:39;8.70;71.70
30594;DHT22;33199;47.590;8.300;2023-02-01T01:40:04;8.70;71.70
30594;DHT22;33199;47.590;8.300;2023-02-01T01:42:30;8.70;71.80
30594;DHT22;33199;47.590;8.300;2023-02-01T01:47:21;8.70;71.80
30594;DHT22;33199;47.590;8.300;2023-02-01T01:49:47;8.70;71.70
30594;DHT22;33199;47.590;8.300;2023-02-01T01:52:12;8.60;71.70
30594;DHT22;33199;47.590;8.300;2023-02-01T01:54:39;8.60;71.70
30594;DHT22;33199;47.590;8.300;2023-02-01T01:57:09;8.60;71.70
30594;DHT22;33199;47.590;8.300;2023-02-01T01:59:37;8.60;71.70
30594;DHT22;33199;47.590;8.300;2023-02-01T02:02:04;8.60;71.80
30594;DHT22;33199;47.590;8.300;2023-02-01T02:04:29;8.60;71.70
30594;DHT22;33199;47.590;8.300;2023-02-01T02:06:57;8.60;71.70
30594;DHT22;33199;47.590;8.300;2023-02-01T02:09:25;8.60;71.70
30594;DHT22;33199;47.590;8.300;2023-02-01T02:11:50;8.60;71.70
30594;DHT22;33199;47.590;8.300;2023-02-01T02:14:17;8.60;71.70
30594;DHT22;33199;47.590;8.300;2023-02-01T02:17:04;8.60;71.80
30594;DHT22;33199;47.590;8.300;2023-02-01T02:35:02;8.60;71.90
30594;DHT22;33199;47.590;8.300;2023-02-01T02:37:38;8.60;71.90
30594;DHT22;33199;47.590;8.300;2023-02-01T02:45:35;8.50;71.80
30594;DHT22;33199;47.590;8.300;2023-02-01T02:48:25;8.60;71.90
30594;DHT22;33199;47.590;8.300;2023-02-01T02:50:59;8.60;72.00
30594;DHT22;33199;47.590;8.300;2023-02-01T02:56:40;8.50;71.90
30594;DHT22;33199;47.590;8.300;2023-02-01T02:59:25;8.50;72.00
30594;DHT22;33199;47.590;8.300;2023-02-01T03:02:10;8.50;72.00
30594;DHT22;33199;47.590;8.300;2023-02-01T03:04:55;8.50;72.00
30594;DHT22;33199;47.590;8.300;2023-02-01T03:10:09;8.50;72.00
30594;DHT22;33199;47.590;8.300;2023-02-01T03:12:35;8.50;72.10
30594;DHT22;33199;47.590;8.300;2023-02-01T03:15:22;8.50;72.10
30594;DHT22;33199;47.590;8.300;2023-02-01T03:17:51;8.50;72.20
30594;DHT22;33199;47.590;8.300;2023-02-01T03:20:20;8.50;72.10
30594;DHT22;33199;47.590;8.300;2023-02-01T03:22:47;8.50;72.10
30594;DHT22;33199;47.590;8.300;2023-02-01T03:25:24;8.50;73.00
30594;DHT22;33199;47.590;8.300;2023-02-01T03:27:55;8.50;72.20
30594;DHT22;33199;47.590;8.300;2023-02-01T03:30:22;8.50;72.20
30594;DHT22;33199;47.590;8.300;2023-02-01T03:32:50;8.50;72.20
30594;DHT22;33199;47.590;8.300;2023-02-01T03:35:27;8.50;72.20
30594;DHT22;33199;47.590;8.300;2023-02-01T03:38:01;8.50;72.20
30594;DHT22;33199;47.590;8.300;2023-02-01T03:40:28;8.50;72.20
30594;DHT22;33199;47.590;8.300;2023-02-01T03:42:57;8.50;72.20
30594;DHT22;33199;47.590;8.300;2023-02-01T03:45:29;8.50;72.20
30594;DHT22;33199;47.590;8.300;2023-02-01T03:47:57;8.50;72.20
30594;DHT22;33199;47.590;8.300;2023-02-01T03:50:25;8.50;72.20
30594;DHT22;33199;47.590;8.300;2023-02-01T03:52:52;8.50;72.20
30594;DHT22;33199;47.590;8.300;2023-02-01T03:55:20;8.50;72.20
30594;DHT22;33199;47.590;8.300;2023-02-01T03:57:55;8.50;72.20
30594;DHT22;33199;47.590;8.300;2023-02-01T04:00:22;8.50;72.30
30594;DHT22;33199;47.590;8.300;2023-02-01T04:02:48;8.40;72.20
30594;DHT22;33199;47.590;8.300;2023-02-01T04:05:13;8.40;72.20
30594;DHT22;33199;47.590;8.300;2023-02-01T04:07:39;8.40;73.00
30594;DHT22;33199;47.590;8.300;2023-02-01T04:10:05;8.50;72.30
30594;DHT22;33199;47.590;8.300;2023-02-01T04:12:30;8.40;72.20
30594;DHT22;33199;47.590;8.300;2023-02-01T04:14:56;8.50;72.30
30594;DHT22;33199;47.590;8.300;2023-02-01T04:17:21;8.40;72.20
30594;DHT22;33199;47.590;8.300;2023-02-01T04:19:47;8.40;72.20
30594;DHT22;33199;47.590;8.300;2023-02-01T04:22:12;8.40;72.20
30594;DHT22;33199;47.590;8.300;2023-02-01T04:24:38;8.40;72.30
30594;DHT22;33199;47.590;8.300;2023-02-01T04:27:03;8.40;72.30
30594;DHT22;33199;47.590;8.300;2023-02-01T04:29:29;8.40;72.30
30594;DHT22;33199;47.590;8.300;2023-02-01T04:31:54;8.40;72.30
30594;DHT22;33199;47.590;8.300;2023-02-01T04:34:20;8.40;72.40
30594;DHT22;33199;47.590;8.300;2023-02-01T04:36:47;8.40;72.40
30594;DHT22;33199;47.590;8.300;2023-02-01T04:39:13;8.40;72.30
30594;DHT22;33199;47.590;8.300;2023-02-01T04:41:39;8.40;72.30
30594;DHT22;33199;47.590;8.300;2023-02-01T04:44:04;8.40;72.40
30594;DHT22;33199;47.590;8.300;2023-02-01T04:46:30;8.40;72.40
30594;DHT22;33199;47.590;8.300;2023-02-01T04:48:55;8.40;72.40
30594;DHT22;33199;47.590;8.300;2023-02-01T04:51:21;8.40;72.40
30594;DHT22;33199;47.590;8.300;2023-02-01T04:53:47;8.40;72.40
30594;DHT22;33199;47.590;8.300;2023-02-01T04:56:12;8.40;72.40
30594;DHT22;33199;47.590;8.300;2023-02-01T04:58:38;8.40;72.40
30594;DHT22;33199;47.590;8.300;2023-02-01T05:01:04;8.40;72.40
30594;DHT22;33199;47.590;8.300;2023-02-01T05:03:31;8.40;72.40
30594;DHT22;33199;47.590;8.300;2023-02-01T05:05:56;8.40;72.40
30594;DHT22;33199;47.590;8.300;2023-02-01T05:08:22;8.30;72.40
30594;DHT22;33199;47.590;8.300;2023-02-01T05:10:50;8.30;72.50
30594;DHT22;33199;47.590;8.300;2023-02-01T05:13:17;8.30;72.40
30594;DHT22;33199;47.590;8.300;2023-02-01T05:16:01;8.30;72.40
30594;DHT22;33199;47.590;8.300;2023-02-01T05:18:26;8.30;72.50
30594;DHT22;33199;47.590;8.300;2023-02-01T05:20:52;8.30;72.50
30594;DHT22;33199;47.590;8.300;2023-02-01T05:23:18;8.30;72.50
30594;DHT22;33199;47.590;8.300;2023-02-01T05:25:43;8.30;72.50
30594;DHT22;33199;47.590;8.300;2023-02-01T05:28:08;8.30;72.50
30594;DHT22;33199;47.590;8.300;2023-02-01T05:30:34;8.30;72.50
30594;DHT22;33199;47.590;8.300;2023-02-01T05:33:03;8.30;72.60
30594;DHT22;33199;47.590;8.300;2023-02-01T05:35:28;8.30;72.50
30594;DHT22;33199;47.590;8.300;2023-02-01T05:37:55;8.30;72.50
30594;DHT22;33199;47.590;8.300;2023-02-01T05:40:20;8.30;72.50
30594;DHT22;33199;47.590;8.300;2023-02-01T05:42:46;8.30;72.50
30594;DHT22;33199;47.590;8.300;2023-02-01T05:45:13;8.30;72.50
30594;DHT22;33199;47.590;8.300;2023-02-01T05:47:38;8.30;72.50
30594;DHT22;33199;47.590;8.300;2023-02-01T05:50:04;8.30;72.60
30594;DHT22;33199;47.590;8.300;2023-02-01T05:52:31;8.30;72.60
30594;DHT22;33199;47.590;8.300;2023-02-01T05:54:57;8.30;72.70
30594;DHT22;33199;47.590;8.300;2023-02-01T05:57:23;8.30;72.60
30594;DHT22;33199;47.590;8.300;2023-02-01T05:59:48;8.30;72.60
30594;DHT22;33199;47.590;8.300;2023-02-01T06:02:15;8.20;72.60
30594;DHT22;33199;47.590;8.300;2023-02-01T06:04:40;8.30;72.70
30594;DHT22;33199;47.590;8.300;2023-02-01T06:07:06;8.30;72.70
30594;DHT22;33199;47.590;8.300;2023-02-01T06:09:33;8.30;72.60
30594;DHT22;33199;47.590;8.300;2023-02-01T06:11:59;8.30;72.60
30594;DHT22;33199;47.590;8.300;2023-02-01T06:14:24;8.30;72.60
30594;DHT22;33199;47.590;8.300;2023-02-01T06:16:50;8.30;72.60
30594;DHT22;33199;47.590;8.300;2023-02-01T06:19:15;8.30;72.60
30594;DHT22;33199;47.590;8.300;2023-02-01T06:21:41;8.30;72.60
30594;DHT22;33199;47.590;8.300;2023-02-01T06:24:06;8.20;72.60
30594;DHT22;33199;47.590;8.300;2023-02-01T06:26:32;8.20;72.60
30594;DHT22;33199;47.590;8.300;2023-02-01T06:28:58;8.20;72.60
30594;DHT22;33199;47.590;8.300;2023-02-01T06:31:23;8.30;72.70
30594;DHT22;33199;47.590;8.300;2023-02-01T06:33:50;8.20;72.60
30594;DHT22;33199;47.590;8.300;2023-02-01T06:36:16;8.20;72.70
30594;DHT22;33199;47.590;8.300;2023-02-01T06:38:43;8.20;72.60
30594;DHT22;33199;47.590;8.300;2023-02-01T06:41:09;8.20;72.70
30594;DHT22;33199;47.590;8.300;2023-02-01T06:43:35;8.20;72.60
30594;DHT22;33199;47.590;8.300;2023-02-01T06:46:07;8.20;72.60
30594;DHT22;33199;47.590;8.300;2023-02-01T06:48:33;8.20;72.70
30594;DHT22;33199;47.590;8.300;2023-02-01T06:50:58;8.20;72.60
30594;DHT22;33199;47.590;8.300;2023-02-01T06:53:24;8.20;72.60
30594;DHT22;33199;47.590;8.300;2023-02-01T06:55:56;8.20;72.60
30594;DHT22;33199;47.590;8.300;2023-02-01T06:58:22;8.20;72.70
30594;DHT22;33199;47.590;8.300;2023-02-01T07:00:48;8.20;72.60
30594;DHT22;33199;47.590;8.300;2023-02-01T07:03:13;8.20;71.90
30594;DHT22;33199;47.590;8.300;2023-02-01T07:05:39;8.10;69.90
30594;DHT22;33199;47.590;8.300;2023-02-01T07:08:05;8.00;70.50
30594;DHT22;33199;47.590;8.300;2023-02-01T07:10:30;8.00;73.10
30594;DHT22;33199;47.590;8.300;2023-02-01T07:12:56;8.00;72.20
30594;DHT22;33199;47.590;8.300;2023-02-01T07:15:22;8.00;72.00
30594;DHT22;33199;47.590;8.300;2023-02-01T07:17:48;8.00;72.10
30594;DHT22;33199;47.590;8.300;2023-02-01T07:20:14;8.00;72.10
30594;DHT22;33199;47.590;8.300;2023-02-01T07:22:40;8.00;71.90
30594;DHT22;33199;47.590;8.300;2023-02-01T07:25:06;8.00;72.00
30594;DHT22;33199;47.590;8.300;2023-02-01T07:27:33;8.00;72.00
30594;DHT22;33199;47.590;8.300;2023-02-01T07:29:58;8.00;72.00
30594;DHT22;33199;47.590;8.300;2023-02-01T07:32:27;8.00;72.00
30594;DHT22;33199;47.590;8.300;2023-02-01T07:34:52;8.10;72.10
30594;DHT22;33199;47.590;8.300;2023-02-01T07:37:18;8.00;72.00
30594;DHT22;33199;47.590;8.300;2023-02-01T07:39:43;8.00;72.00
30594;DHT22;33199;47.590;8.300;2023-02-01T07:42:09;8.10;72.20
30594;DHT22;33199;47.590;8.300;2023-02-01T07:44:34;8.10;72.20
30594;DHT22;33199;47.590;8.300;2023-02-01T07:47:00;8.10;72.20
30594;DHT22;33199;47.590;8.300;2023-02-01T07:49:25;8.00;72.10
30594;DHT22;33199;47.590;8.300;2023-02-01T07:51:51;8.00;72.20
30594;DHT22;33199;47.590;8.300;2023-02-01T07:54:16;8.00;72.10
30594;DHT22;33199;47.590;8.300;2023-02-01T07:56:42;8.10;72.20
30594;DHT22;33199;47.590;8.300;2023-02-01T07:59:08;8.00;72.20
30594;DHT22;33199;47.590;8.300;2023-02-01T08:01:34;8.00;72.20
30594;DHT22;33199;47.590;8.300;2023-02-01T08:04:00;8.00;72.20
30594;DHT22;33199;47.590;8.300;2023-02-01T08:06:27;8.00;72.20
30594;DHT22;33199;47.590;8.300;2023-02-01T08:08:53;8.00;72.20
30594;DHT22;33199;47.590;8.300;2023-02-01T08:11:19;8.00;72.20
30594;DHT22;33199;47.590;8.300;2023-02-01T08:13:45;8.00;72.20
30594;DHT22;33199;47.590;8.300;2023-02-01T08:16:11;8.00;72.30
30594;DHT22;33199;47.590;8.300;2023-02-01T08:18:37;8.00;72.20
30594;DHT22;33199;47.590;8.300;2023-02-01T08:21:04;8.00;72.20
30594;DHT22;33199;47.590;8.300;2023-02-01T08:23:29;8.00;72.30
30594;DHT22;33199;47.590;8.300;2023-02-01T08:26:07;8.00;72.30
30594;DHT22;33199;47.590;8.300;2023-02-01T08:28:33;8.00;72.30
30594;DHT22;33199;47.590;8.300;2023-02-01T08:30:58;8.00;72.40
30594;DHT22;33199;47.590;8.300;2023-02-01T08:33:24;8.00;72.30
30594;DHT22;33199;47.590;8.300;2023-02-01T08:35:49;8.00;72.40
30594;DHT22;33199;47.590;8.300;2023-02-01T08:38:15;8.00;72.40
30594;DHT22;33199;47.590;8.300;2023-02-01T08:40:40;8.00;72.30
30594;DHT22;33199;47.590;8.300;2023-02-01T08:43:07;8.00;72.40
30594;DHT22;33199;47.590;8.300;2023-02-01T08:45:32;8.00;72.40
30594;DHT22;33199;47.590;8.300;2023-02-01T08:47:58;8.00;72.40
30594;DHT22;33199;47.590;8.300;2023-02-01T08:50:24;8.00;72.50
30594;DHT22;33199;47.590;8.300;2023-02-01T08:52:50;8.00;72.40
30594;DHT22;33199;47.590;8.300;2023-02-01T08:55:15;8.00;72.40
30594;DHT22;33199;47.590;8.300;2023-02-01T08:57:41;8.00;72.50
30594;DHT22;33199;47.590;8.300;2023-02-01T09:00:07;8.00;72.50
30594;DHT22;33199;47.590;8.300;2023-02-01T09:02:33;8.00;72.50
30594;DHT22;33199;47.590;8.300;2023-02-01T09:04:59;8.00;72.50
30594;DHT22;33199;47.590;8.300;2023-02-01T09:07:25;8.00;72.50
30594;DHT22;33199;47.590;8.300;2023-02-01T09:09:50;8.00;72.40
30594;DHT22;33199;47.590;8.300;2023-02-01T09:12:16;8.00;72.40
30594;DHT22;33199;47.590;8.300;2023-02-01T09:14:41;8.00;72.50
30594;DHT22;33199;47.590;8.300;2023-02-01T09:17:07;8.00;72.50
30594;DHT22;33199;47.590;8.300;2023-02-01T09:19:32;8.00;72.60
30594;DHT22;33199;47.590;8.300;2023-02-01T09:21:58;7.90;72.60
30594;DHT22;33199;47.590;8.300;2023-02-01T09:24:23;7.90;72.60
30594;DHT22;33199;47.590;8.300;2023-02-01T09:26:49;7.90;72.70
30594;DHT22;33199;47.590;8.300;2023-02-01T09:29:14;8.00;72.70
30594;DHT22;33199;47.590;8.300;2023-02-01T09:31:40;8.00;72.60
30594;DHT22;33199;47.590;8.300;2023-02-01T09:34:06;8.00;72.60
30594;DHT22;33199;47.590;8.300;2023-02-01T09:36:32;7.90;72.60
30594;DHT22;33199;47.590;8.300;2023-02-01T09:38:57;8.00;72.60
30594;DHT22;33199;47.590;8.300;2023-02-01T09:46:36;7.90;72.60
30594;DHT22;33199;47.590;8.300;2023-02-01T09:49:04;8.00;72.70
30594;DHT22;33199;47.590;8.300;2023-02-01T09:51:34;7.90;72.60
30594;DHT22;33199;47.590;8.300;2023-02-01T09:56:53;7.90;72.70
30594;DHT22;33199;47.590;8.300;2023-02-01T09:59:39;7.90;72.60
30594;DHT22;33199;47.590;8.300;2023-02-01T10:02:24;7.90;72.60
30594;DHT22;33199;47.590;8.300;2023-02-01T10:04:52;7.90;72.60
30594;DHT22;33199;47.590;8.300;2023-02-01T10:10:01;7.90;72.70
30594;DHT22;33199;47.590;8.300;2023-02-01T10:18:20;7.90;72.70
30594;DHT22;33199;47.590;8.300;2023-02-01T10:23:54;7.90;72.80
30594;DHT22;33199;47.590;8.300;2023-02-01T10:26:25;7.90;72.80
30594;DHT22;33199;47.590;8.300;2023-02-01T10:28:51;7.90;72.80
30594;DHT22;33199;47.590;8.300;2023-02-01T10:31:17;7.90;72.80
30594;DHT22;33199;47.590;8.300;2023-02-01T10:33:50;7.80;72.80
30594;DHT22;33199;47.590;8.300;2023-02-01T10:36:21;7.90;72.90
30594;DHT22;33199;47.590;8.300;2023-02-01T10:38:47;7.90;72.90
30594;DHT22;33199;47.590;8.300;2023-02-01T10:41:14;7.90;72.80
30594;DHT22;33199;47.590;8.300;2023-02-01T10:43:40;7.80;72.80
30594;DHT22;33199;47.590;8.300;2023-02-01T10:46:06;7.90;72.90
30594;DHT22;33199;47.590;8.300;2023-02-01T10:48:32;7.90;73.00
30594;DHT22;33199;47.590;8.300;2023-02-01T10:51:01;7.80;72.90
30594;DHT22;33199;47.590;8.300;2023-02-01T10:55:53;7.90;72.90
30594;DHT22;33199;47.590;8.300;2023-02-01T10:58:20;7.90;72.90
30594;DHT22;33199;47.590;8.300;2023-02-01T11:00:52;7.90;72.90
30594;DHT22;33199;47.590;8.300;2023-02-01T11:03:19;7.90;73.00
30594;DHT22;33199;47.590;8.300;2023-02-01T11:05:46;7.90;72.90
30594;DHT22;33199;47.590;8.300;2023-02-01T11:08:14;7.90;73.00
30594;DHT22;33199;47.590;8.300;2023-02-01T11:10:42;7.90;72.90
30594;DHT22;33199;47.590;8.300;2023-02-01T11:13:18;7.90;73.00
30594;DHT22;33199;47.590;8.300;2023-02-01T11:15:44;7.90;73.00
30594;DHT22;33199;47.590;8.300;2023-02-01T11:18:20;7.90;73.00
30594;DHT22;33199;47.590;8.300;2023-02-01T11:20:50;7.90;72.90
30594;DHT22;33199;47.590;8.300;2023-02-01T11:23:24;7.80;72.90
30594;DHT22;33199;47.590;8.300;2023-02-01T11:25:54;7.80;72.90
30594;DHT22;33199;47.590;8.300;2023-02-01T11:28:21;7.80;73.00
30594;DHT22;33199;47.590;8.300;2023-02-01T11:30:47;7.80;73.00
30594;DHT22;33199;47.590;8.300;2023-02-01T11:33:17;7.80;73.00
30594;DHT22;33199;47.590;8.300;2023-02-01T11:35:44;7.90;73.10
30594;DHT22;33199;47.590;8.300;2023-02-01T11:38:27;7.80;73.00
30594;DHT22;33199;47.590;8.300;2023-02-01T11:40:53;7.80;73.10
30594;DHT22;33199;47.590;8.300;2023-02-01T11:43:28;7.80;73.10
30594;DHT22;33199;47.590;8.300;2023-02-01T11:46:00;7.80;73.10
30594;DHT22;33199;47.590;8.300;2023-02-01T11:48:30;7.80;73.00
30594;DHT22;33199;47.590;8.300;2023-02-01T12:06:36;7.70;72.40
30594;DHT22;33199;47.590;8.300;2023-02-01T12:11:52;7.60;72.60
30594;DHT22;33199;47.590;8.300;2023-02-01T12:16:50;7.70;72.60
30594;DHT22;33199;47.590;8.300;2023-02-01T12:27:00;7.70;72.40
30594;DHT22;33199;47.590;8.300;2023-02-01T12:34:37;7.70;72.50
30594;DHT22;33199;47.590;8.300;2023-02-01T12:44:31;7.70;72.50
30594;DHT22;33199;47.590;8.300;2023-02-01T12:47:40;7.70;72.50
30594;DHT22;33199;47.590;8.300;2023-02-01T12:49:48;7.70;72.50
30594;DHT22;33199;47.590;8.300;2023-02-01T12:55:02;7.70;72.60
30594;DHT22;33199;47.590;8.300;2023-02-01T12:57:33;7.70;72.70
30594;DHT22;33199;47.590;8.300;2023-02-01T13:02:39;7.70;72.70
30594;DHT22;33199;47.590;8.300;2023-02-01T13:05:24;7.70;72.70
30594;DHT22;33199;47.590;8.300;2023-02-01T13:07:58;7.70;72.60
30594;DHT22;33199;47.590;8.300;2023-02-01T13:12:58;7.70;72.70
30594;DHT22;33199;47.590;8.300;2023-02-01T13:15:30;7.70;72.80
30594;DHT22;33199;47.590;8.300;2023-02-01T13:17:58;7.70;72.70
30594;DHT22;33199;47.590;8.300;2023-02-01T13:20:28;7.70;72.70
30594;DHT22;33199;47.590;8.300;2023-02-01T13:22:57;7.70;72.80
30594;DHT22;33199;47.590;8.300;2023-02-01T13:25:35;7.70;72.70
30594;DHT22;33199;47.590;8.300;2023-02-01T13:28:05;7.70;72.70
30594;DHT22;33199;47.590;8.300;2023-02-01T13:30:37;7.70;72.70
30594;DHT22;33199;47.590;8.300;2023-02-01T13:36:02;7.70;72.70
30594;DHT22;33199;47.590;8.300;2023-02-01T13:38:52;7.70;72.80
30594;DHT22;33199;47.590;8.300;2023-02-01T13:41:27;7.70;72.70
30594;DHT22;33199;47.590;8.300;2023-02-01T13:44:00;7.60;72.80
30594;DHT22;33199;47.590;8.300;2023-02-01T13:46:28;7.60;72.80
30594;DHT22;33199;47.590;8.300;2023-02-01T13:48:55;7.60;72.80
30594;DHT22;33199;47.590;8.300;2023-02-01T13:51:41;7.60;72.80
30594;DHT22;33199;47.590;8.300;2023-02-01T13:54:21;7.60;72.80
30594;DHT22;33199;47.590;8.300;2023-02-01T13:56:48;7.60;72.80
30594;DHT22;33199;47.590;8.300;2023-02-01T14:01:58;7.70;72.70
30594;DHT22;33199;47.590;8.300;2023-02-01T14:04:50;7.70;72.80
30594;DHT22;33199;47.590;8.300;2023-02-01T14:07:17;7.70;72.70
30594;DHT22;33199;47.590;8.300;2023-02-01T14:09:43;7.70;72.70
30594;DHT22;33199;47.590;8.300;2023-02-01T14:14:53;7.70;72.80
30594;DHT22;33199;47.590;8.300;2023-02-01T14:17:38;7.70;72.80
30594;DHT22;33199;47.590;8.300;2023-02-01T14:22:48;7.60;72.70
30594;DHT22;33199;47.590;8.300;2023-02-01T14:25:17;7.60;72.70
30594;DHT22;33199;47.590;8.300;2023-02-01T14:27:43;7.70;72.80
30594;DHT22;33199;47.590;8.300;2023-02-01T14:30:14;7.60;72.70
30594;DHT22;33199;47.590;8.300;2023-02-01T14:32:40;7.60;72.80
30594;DHT22;33199;47.590;8.300;2023-02-01T14:37:43;7.60;72.70
30594;DHT22;33199;47.590;8.300;2023-02-01T14:42:50;7.60;73.00
30594;DHT22;33199;47.590;8.300;2023-02-01T14:47:45;7.60;72.90
30594;DHT22;33199;47.590;8.300;2023-02-01T14:52:38;7.60;72.80
30594;DHT22;33199;47.590;8.300;2023-02-01T14:57:52;7.60;72.80
30594;DHT22;33199;47.590;8.300;2023-02-01T15:00:23;7.60;72.90
30594;DHT22;33199;47.590;8.300;2023-02-01T15:02:49;7.60;72.80
30594;DHT22;33199;47.590;8.300;2023-02-01T15:07:50;7.60;72.80
30594;DHT22;33199;47.590;8.300;2023-02-01T15:10:16;7.60;72.90
30594;DHT22;33199;47.590;8.300;2023-02-01T15:12:42;7.60;72.90
30594;DHT22;33199;47.590;8.300;2023-02-01T15:15:13;7.60;72.90
30594;DHT22;33199;47.590;8.300;2023-02-01T15:17:39;7.60;72.90
30594;DHT22;33199;47.590;8.300;2023-02-01T15:20:13;7.60;72.80
30594;DHT22;33199;47.590;8.300;2023-02-01T15:22:38;7.60;72.80
30594;DHT22;33199;47.590;8.300;2023-02-01T15:25:04;7.60;72.90
30594;DHT22;33199;47.590;8.300;2023-02-01T15:27:31;7.60;72.80
30594;DHT22;33199;47.590;8.300;2023-02-01T15:30:06;7.60;72.80
30594;DHT22;33199;47.590;8.300;2023-02-01T15:32:33;7.60;72.80
30594;DHT22;33199;47.590;8.300;2023-02-01T15:34:59;7.60;72.80
30594;DHT22;33199;47.590;8.300;2023-02-01T15:37:26;7.60;72.80
30594;DHT22;33199;47.590;8.300;2023-02-01T15:42:36;7.60;72.90
30594;DHT22;33199;47.590;8.300;2023-02-01T15:45:04;7.60;72.90
30594;DHT22;33199;47.590;8.300;2023-02-01T15:47:40;7.60;73.00
30594;DHT22;33199;47.590;8.300;2023-02-01T15:50:12;7.60;72.90
30594;DHT22;33199;47.590;8.300;2023-02-01T15:52:39;7.60;72.90
30594;DHT22;33199;47.590;8.300;2023-02-01T15:55:08;7.60;73.00
30594;DHT22;33199;47.590;8.300;2023-02-01T15:57:42;7.60;72.90
30594;DHT22;33199;47.590;8.300;2023-02-01T16:00:21;7.60;73.00
30594;DHT22;33199;47.590;8.300;2023-02-01T16:02:51;7.60;73.00
30594;DHT22;33199;47.590;8.300;2023-02-01T16:05:37;7.60;73.00
30594;DHT22;33199;47.590;8.300;2023-02-01T16:08:04;7.60;73.00
30594;DHT22;33199;47.590;8.300;2023-02-01T16:10:38;7.60;73.00
30594;DHT22;33199;47.590;8.300;2023-02-01T16:13:04;7.60;73.00
30594;DHT22;33199;47.590;8.300;2023-02-01T16:15:29;7.60;72.90
30594;DHT22;33199;47.590;8.300;2023-02-01T16:17:56;7.60;72.90
30594;DHT22;33199;47.590;8.300;2023-02-01T16:20:21;7.60;72.90
30594;DHT22;33199;47.590;8.300;2023-02-01T16:22:47;7.60;72.90
30594;DHT22;33199;47.590;8.300;2023-02-01T16:25:12;7.60;72.90
30594;DHT22;33199;47.590;8.300;2023-02-01T16:27:38;7.60;72.90
30594;DHT22;33199;47.590;8.300;2023-02-01T16:30:03;7.60;72.90
30594;DHT22;33199;47.590;8.300;2023-02-01T16:32:29;7.60;72.80
30594;DHT22;33199;47.590;8.300;2023-02-01T16:34:56;7.60;72.80
30594;DHT22;33199;47.590;8.300;2023-02-01T16:37:22;7.60;72.90
30594;DHT22;33199;47.590;8.300;2023-02-01T16:39:48;7.60;72.90
30594;DHT22;33199;47.590;8.300;2023-02-01T16:42:14;7.60;72.90
30594;DHT22;33199;47.590;8.300;2023-02-01T16:44:40;7.60;72.80
30594;DHT22;33199;47.590;8.300;2023-02-01T16:47:12;7.60;72.90
30594;DHT22;33199;47.590;8.300;2023-02-01T16:49:40;7.60;72.90
30594;DHT22;33199;47.590;8.300;2023-02-01T16:52:09;7.60;72.90
30594;DHT22;33199;47.590;8.300;2023-02-01T16:54:36;7.60;73.00
30594;DHT22;33199;47.590;8.300;2023-02-01T16:57:01;7.60;72.90
30594;DHT22;33199;47.590;8.300;2023-02-01T16:59:27;7.60;73.00
30594;DHT22;33199;47.590;8.300;2023-02-01T17:01:52;7.60;73.00
30594;DHT22;33199;47.590;8.300;2023-02-01T17:04:18;7.50;72.90
30594;DHT22;33199;47.590;8.300;2023-02-01T17:06:45;7.60;73.00
30594;DHT22;33199;47.590;8.300;2023-02-01T17:09:14;7.60;72.90
30594;DHT22;33199;47.590;8.300;2023-02-01T17:11:39;7.50;72.90
30594;DHT22;33199;47.590;8.300;2023-02-01T17:16:36;7.60;73.00
30594;DHT22;33199;47.590;8.300;2023-02-01T17:19:03;7.60;72.90
30594;DHT22;33199;47.590;8.300;2023-02-01T17:21:39;7.50;72.80
30594;DHT22;33199;47.590;8.300;2023-02-01T17:24:05;7.60;73.00
30594;DHT22;33199;47.590;8.300;2023-02-01T17:26:31;7.60;73.00
30594;DHT22;33199;47.590;8.300;2023-02-01T17:28:56;7.50;72.90
30594;DHT22;33199;47.590;8.300;2023-02-01T17:31:22;7.50;72.90
30594;DHT22;33199;47.590;8.300;2023-02-01T17:33:47;7.60;73.00
30594;DHT22;33199;47.590;8.300;2023-02-01T17:36:14;7.60;73.00
30594;DHT22;33199;47.590;8.300;2023-02-01T17:38:41;7.50;72.90
30594;DHT22;33199;47.590;8.300;2023-02-01T17:41:08;7.60;73.00
30594;DHT22;33199;47.590;8.300;2023-02-01T17:43:34;7.60;73.00
30594;DHT22;33199;47.590;8.300;2023-02-01T17:46:01;7.50;72.90
30594;DHT22;33199;47.590;8.300;2023-02-01T17:48:28;7.60;73.00
30594;DHT22;33199;47.590;8.300;2023-02-01T17:50:53;7.60;73.00
30594;DHT22;33199;47.590;8.300;2023-02-01T17:53:26;7.50;72.90
30594;DHT22;33199;47.590;8.300;2023-02-01T17:55:52;7.50;72.80
30594;DHT22;33199;47.590;8.300;2023-02-01T17:58:18;7.60;72.90
30594;DHT22;33199;47.590;8.300;2023-02-01T18:00:43;7.60;72.90
30594;DHT22;33199;47.590;8.300;2023-02-01T18:03:19;7.50;72.90